sensor_id;sensor_type;location;lat;lon;timestamp;P1;durP1;ratioP1;P2;durP2;ratioP2
21663;SDS011;10993;52.510;13.456;2023-03-25T00:04:00;7.90;;;2.53;;
21663;SDS011;10993;52.510;13.456;2023-03-25T00:09:03;6.63;;;2.03;;
21663;SDS011;10993;52.510;13.456;2023-03-25T00:14:05;5.13;;;2.08;;
21663;SDS011;10993;52.510;13.456;2023-03-25T00:19:05;6.95;;;2.03;;
21663;SDS011;10993;52.510;13.456;2023-03-25T00:24:08;5.55;;;2.00;;
21663;SDS011;10993;52.510;13.456;2023-03-25T00:29:09;4.53;;;1.95;;
21663;SDS011;10993;52.510;13.456;2023-03-25T00:34:10;5.97;;;2.10;;
21663;SDS011;10993;52.510;13.456;2023-03-25T00:39:13;6.80;;;2.30;;
21663;SDS011;10993;52.510;13.456;2023-03-25T00:44:15;4.10;;;1.77;;
21663;SDS011;10993;52.510;13.456;2023-03-25T00:49:16;5.43;;;2.13;;
21663;SDS011;10993;52.510;13.456;2023-03-25T00:54:16;4.22;;;1.77;;
21663;SDS011;10993;52.510;13.456;2023-03-25T00:59:18;4.38;;;1.30;;
21663;SDS011;10993;52.510;13.456;2023-03-25T01:04:19;3.97;;;1.65;;
21663;SDS011;10993;52.510;13.456;2023-03-25T01:09:21;4.32;;;1.80;;
21663;SDS011;10993;52.510;13.456;2023-03-25T01:14:23;7.15;;;2.80;;
21663;SDS011;10993;52.510;13.456;2023-03-25T01:19:26;4.47;;;1.70;;
21663;SDS011;10993;52.510;13.456;2023-03-25T01:24:27;7.78;;;3.10;;
21663;SDS011;10993;52.510;13.456;2023-03-25T01:29:29;4.30;;;1.70;;
21663;SDS011;10993;52.510;13.456;2023-03-25T01:34:30;4.60;;;1.58;;
21663;SDS011;10993;52.510;13.456;2023-03-25T01:39:31;4.78;;;1.88;;
21663;SDS011;10993;52.510;13.456;2023-03-25T01:50:10;4.88;;;2.00;;
21663;SDS011;10993;52.510;13.456;2023-03-25T01:55:14;5.43;;;1.92;;
21663;SDS011;10993;52.510;13.456;2023-03-25T02:00:17;4.30;;;1.65;;
21663;SDS011;10993;52.510;13.456;2023-03-25T02:05:20;5.90;;;1.60;;
21663;SDS011;10993;52.510;13.456;2023-03-25T02:10:26;7.57;;;2.75;;
21663;SDS011;10993;52.510;13.456;2023-03-25T02:15:26;9.00;;;3.20;;
21663;SDS011;10993;52.510;13.456;2023-03-25T02:26:17;3.22;;;1.30;;
21663;SDS011;10993;52.510;13.456;2023-03-25T02:31:44;4.10;;;2.10;;
21663;SDS011;10993;52.510;13.456;2023-03-25T02:36:57;6.22;;;2.38;;
21663;SDS011;10993;52.510;13.456;2023-03-25T02:42:19;8.93;;;2.92;;
21663;SDS011;10993;52.510;13.456;2023-03-25T02:47:26;16.20;;;5.53;;
21663;SDS011;10993;52.510;13.456;2023-03-25T02:52:31;5.05;;;1.63;;
21663;SDS011;10993;52.510;13.456;2023-03-25T02:57:38;4.93;;;1.90;;
21663;SDS011;10993;52.510;13.456;2023-03-25T03:02:41;2.90;;;1.48;;
21663;SDS011;10993;52.510;13.456;2023-03-25T03:07:44;4.70;;;2.10;;
21663;SDS011;10993;52.510;13.456;2023-03-25T03:12:53;4.93;;;1.95;;
21663;SDS011;10993;52.510;13.456;2023-03-25T03:18:07;5.85;;;2.08;;
21663;SDS011;10993;52.510;13.456;2023-03-25T03:23:14;6.38;;;1.45;;
21663;SDS011;10993;52.510;13.456;2023-03-25T03:28:26;4.18;;;2.30;;
21663;SDS011;10993;52.510;13.456;2023-03-25T03:33:32;5.07;;;2.05;;
21663;SDS011;10993;52.510;13.456;2023-03-25T03:38:40;4.15;;;1.45;;
21663;SDS011;10993;52.510;13.456;2023-03-25T03:43:47;3.83;;;1.63;;
21663;SDS011;10993;52.510;13.456;2023-03-25T03:48:51;4.18;;;1.70;;
21663;SDS011;10993;52.510;13.456;2023-03-25T03:53:55;7.60;;;2.05;;
21663;SDS011;10993;52.510;13.456;2023-03-25T03:59:00;4.32;;;1.35;;
21663;SDS011;10993;52.510;13.456;2023-03-25T04:04:04;4.05;;;1.30;;
21663;SDS011;10993;52.510;13.456;2023-03-25T04:09:10;9.60;;;2.75;;
21663;SDS011;10993;52.510;13.456;2023-03-25T04:14:18;11.80;;;2.67;;
21663;SDS011;10993;52.510;13.456;2023-03-25T04:19:19;10.40;;;2.80;;
21663;SDS011;10993;52.510;13.456;2023-03-25T04:24:20;5.22;;;1.80;;
21663;SDS011;10993;52.510;13.456;2023-03-25T04:29:22;5.28;;;1.40;;
21663;SDS011;10993;52.510;13.456;2023-03-25T04:34:23;3.92;;;1.77;;
21663;SDS011;10993;52.510;13.456;2023-03-25T04:39:26;4.22;;;1.05;;
21663;SDS011;10993;52.510;13.456;2023-03-25T04:44:30;4.95;;;1.17;;
21663;SDS011;10993;52.510;13.456;2023-03-25T04:49:37;5.65;;;1.02;;
21663;SDS011;10993;52.510;13.456;2023-03-25T04:54:38;3.42;;;1.25;;
21663;SDS011;10993;52.510;13.456;2023-03-25T04:59:40;1.88;;;0.82;;
21663;SDS011;10993;52.510;13.456;2023-03-25T05:04:41;2.85;;;1.10;;
21663;SDS011;10993;52.510;13.456;2023-03-25T05:09:41;2.25;;;0.90;;
21663;SDS011;10993;52.510;13.456;2023-03-25T05:14:43;2.30;;;0.90;;
21663;SDS011;10993;52.510;13.456;2023-03-25T05:19:43;3.50;;;1.00;;
21663;SDS011;10993;52.510;13.456;2023-03-25T05:24:44;4.00;;;1.08;;
21663;SDS011;10993;52.510;13.456;2023-03-25T05:29:46;3.85;;;1.13;;
21663;SDS011;10993;52.510;13.456;2023-03-25T05:34:46;4.80;;;1.38;;
21663;SDS011;10993;52.510;13.456;2023-03-25T05:39:47;2.78;;;1.35;;
21663;SDS011;10993;52.510;13.456;2023-03-25T05:44:48;2.33;;;1.00;;
21663;SDS011;10993;52.510;13.456;2023-03-25T05:49:52;3.17;;;0.70;;
21663;SDS011;10993;52.510;13.456;2023-03-25T05:54:53;3.50;;;0.57;;
21663;SDS011;10993;52.510;13.456;2023-03-25T05:59:56;2.58;;;0.80;;
21663;SDS011;10993;52.510;13.456;2023-03-25T06:04:56;1.58;;;0.50;;
21663;SDS011;10993;52.510;13.456;2023-03-25T06:09:57;2.28;;;0.77;;
21663;SDS011;10993;52.510;13.456;2023-03-25T06:14:58;2.28;;;0.47;;
21663;SDS011;10993;52.510;13.456;2023-03-25T06:19:59;4.30;;;0.90;;
21663;SDS011;10993;52.510;13.456;2023-03-25T06:24:59;1.02;;;0.43;;
21663;SDS011;10993;52.510;13.456;2023-03-25T06:30:02;0.93;;;0.35;;
21663;SDS011;10993;52.510;13.456;2023-03-25T06:35:03;1.20;;;0.35;;
21663;SDS011;10993;52.510;13.456;2023-03-25T06:40:05;2.42;;;0.57;;
21663;SDS011;10993;52.510;13.456;2023-03-25T06:45:08;1.08;;;0.60;;
21663;SDS011;10993;52.510;13.456;2023-03-25T06:50:09;2.13;;;0.52;;
21663;SDS011;10993;52.510;13.456;2023-03-25T06:55:10;2.17;;;0.60;;
21663;SDS011;10993;52.510;13.456;2023-03-25T07:00:13;1.67;;;0.40;;
21663;SDS011;10993;52.510;13.456;2023-03-25T07:05:13;1.55;;;0.47;;
21663;SDS011;10993;52.510;13.456;2023-03-25T07:10:14;3.50;;;1.30;;
21663;SDS011;10993;52.510;13.456;2023-03-25T07:15:16;0.93;;;0.30;;
21663;SDS011;10993;52.510;13.456;2023-03-25T07:20:17;1.52;;;0.40;;
21663;SDS011;10993;52.510;13.456;2023-03-25T07:25:17;1.42;;;0.47;;
21663;SDS011;10993;52.510;13.456;2023-03-25T07:30:19;2.30;;;0.73;;
21663;SDS011;10993;52.510;13.456;2023-03-25T07:35:20;1.98;;;0.70;;
21663;SDS011;10993;52.510;13.456;2023-03-25T07:40:20;1.02;;;0.40;;
21663;SDS011;10993;52.510;13.456;2023-03-25T07:45:22;2.10;;;0.40;;
21663;SDS011;10993;52.510;13.456;2023-03-25T07:50:22;1.95;;;0.40;;
21663;SDS011;10993;52.510;13.456;2023-03-25T07:55:23;2.63;;;0.60;;
21663;SDS011;10993;52.510;13.456;2023-03-25T08:00:24;8.48;;;1.42;;
21663;SDS011;10993;52.510;13.456;2023-03-25T08:05:25;2.55;;;0.63;;
21663;SDS011;10993;52.510;13.456;2023-03-25T08:10:26;3.10;;;0.50;;
21663;SDS011;10993;52.510;13.456;2023-03-25T08:15:28;1.88;;;0.60;;
21663;SDS011;10993;52.510;13.456;2023-03-25T08:20:29;1.98;;;0.55;;
21663;SDS011;10993;52.510;13.456;2023-03-25T08:25:30;1.48;;;0.40;;
21663;SDS011;10993;52.510;13.456;2023-03-25T08:30:31;1.17;;;0.30;;
21663;SDS011;10993;52.510;13.456;2023-03-25T08:35:37;2.42;;;0.70;;
21663;SDS011;10993;52.510;13.456;2023-03-25T08:40:38;2.78;;;0.60;;
21663;SDS011;10993;52.510;13.456;2023-03-25T08:45:40;2.25;;;0.50;;
21663;SDS011;10993;52.510;13.456;2023-03-25T08:50:40;2.20;;;0.63;;
21663;SDS011;10993;52.510;13.456;2023-03-25T08:55:40;2.25;;;0.70;;
21663;SDS011;10993;52.510;13.456;2023-03-25T09:00:42;1.15;;;0.40;;
21663;SDS011;10993;52.510;13.456;2023-03-25T09:05:43;0.88;;;0.30;;
21663;SDS011;10993;52.510;13.456;2023-03-25T09:10:43;1.60;;;0.30;;
21663;SDS011;10993;52.510;13.456;2023-03-25T09:15:45;1.85;;;0.40;;
21663;SDS011;10993;52.510;13.456;2023-03-25T09:20:46;3.58;;;0.55;;
21663;SDS011;10993;52.510;13.456;2023-03-25T09:25:47;3.92;;;0.80;;
21663;SDS011;10993;52.510;13.456;2023-03-25T09:30:51;2.10;;;0.88;;
21663;SDS011;10993;52.510;13.456;2023-03-25T09:35:52;0.65;;;0.28;;
21663;SDS011;10993;52.510;13.456;2023-03-25T09:40:53;2.92;;;0.77;;
21663;SDS011;10993;52.510;13.456;2023-03-25T09:45:56;0.95;;;0.40;;
21663;SDS011;10993;52.510;13.456;2023-03-25T09:50:59;1.05;;;0.50;;
21663;SDS011;10993;52.510;13.456;2023-03-25T09:56:03;3.63;;;0.93;;
21663;SDS011;10993;52.510;13.456;2023-03-25T10:01:16;2.70;;;0.82;;
21663;SDS011;10993;52.510;13.456;2023-03-25T10:06:22;1.05;;;0.40;;
21663;SDS011;10993;52.510;13.456;2023-03-25T10:11:27;1.15;;;0.45;;
21663;SDS011;10993;52.510;13.456;2023-03-25T10:16:35;2.33;;;0.47;;
21663;SDS011;10993;52.510;13.456;2023-03-25T10:21:47;1.02;;;0.47;;
21663;SDS011;10993;52.510;13.456;2023-03-25T10:26:56;1.13;;;0.50;;
21663;SDS011;10993;52.510;13.456;2023-03-25T10:32:03;1.25;;;0.30;;
21663;SDS011;10993;52.510;13.456;2023-03-25T10:37:08;1.25;;;0.55;;
21663;SDS011;10993;52.510;13.456;2023-03-25T10:42:14;0.88;;;0.30;;
21663;SDS011;10993;52.510;13.456;2023-03-25T10:47:21;1.75;;;0.50;;
21663;SDS011;10993;52.510;13.456;2023-03-25T10:52:25;0.98;;;0.50;;
21663;SDS011;10993;52.510;13.456;2023-03-25T10:57:27;2.55;;;0.70;;
21663;SDS011;10993;52.510;13.456;2023-03-25T11:02:31;1.35;;;0.55;;
21663;SDS011;10993;52.510;13.456;2023-03-25T11:07:33;3.95;;;0.70;;
21663;SDS011;10993;52.510;13.456;2023-03-25T11:12:36;1.52;;;0.57;;
21663;SDS011;10993;52.510;13.456;2023-03-25T11:17:39;3.47;;;1.08;;
21663;SDS011;10993;52.510;13.456;2023-03-25T11:22:41;1.20;;;0.40;;
21663;SDS011;10993;52.510;13.456;2023-03-25T11:27:46;2.00;;;0.52;;
21663;SDS011;10993;52.510;13.456;2023-03-25T11:32:58;1.10;;;0.52;;
21663;SDS011;10993;52.510;13.456;2023-03-25T11:38:07;1.27;;;0.40;;
21663;SDS011;10993;52.510;13.456;2023-03-25T11:43:14;1.17;;;0.52;;
21663;SDS011;10993;52.510;13.456;2023-03-25T11:48:21;1.25;;;0.50;;
21663;SDS011;10993;52.510;13.456;2023-03-25T11:53:23;2.05;;;0.40;;
21663;SDS011;10993;52.510;13.456;2023-03-25T11:58:26;2.08;;;0.93;;
21663;SDS011;10993;52.510;13.456;2023-03-25T12:03:32;1.67;;;0.63;;
21663;SDS011;10993;52.510;13.456;2023-03-25T12:08:40;1.05;;;0.45;;
21663;SDS011;10993;52.510;13.456;2023-03-25T12:13:55;1.45;;;0.60;;
21663;SDS011;10993;52.510;13.456;2023-03-25T12:19:28;3.20;;;0.60;;
21663;SDS011;10993;52.510;13.456;2023-03-25T12:24:44;1.80;;;0.60;;
21663;SDS011;10993;52.510;13.456;2023-03-25T12:30:01;1.10;;;0.60;;
21663;SDS011;10993;52.510;13.456;2023-03-25T12:35:20;2.83;;;0.98;;
21663;SDS011;10993;52.510;13.456;2023-03-25T12:40:31;2.55;;;0.88;;
21663;SDS011;10993;52.510;13.456;2023-03-25T12:45:54;1.65;;;0.47;;
21663;SDS011;10993;52.510;13.456;2023-03-25T12:51:06;2.22;;;0.60;;
21663;SDS011;10993;52.510;13.456;2023-03-25T12:56:28;2.50;;;1.13;;
21663;SDS011;10993;52.510;13.456;2023-03-25T13:01:43;0.80;;;0.30;;
21663;SDS011;10993;52.510;13.456;2023-03-25T13:06:56;1.85;;;0.90;;
21663;SDS011;10993;52.510;13.456;2023-03-25T13:12:02;4.15;;;1.40;;
21663;SDS011;10993;52.510;13.456;2023-03-25T13:17:10;1.63;;;0.82;;
21663;SDS011;10993;52.510;13.456;2023-03-25T13:22:22;2.25;;;0.70;;
21663;SDS011;10993;52.510;13.456;2023-03-25T13:27:28;1.35;;;0.57;;
21663;SDS011;10993;52.510;13.456;2023-03-25T13:32:33;2.85;;;0.75;;
21663;SDS011;10993;52.510;13.456;2023-03-25T13:37:42;0.63;;;0.35;;
21663;SDS011;10993;52.510;13.456;2023-03-25T13:42:46;1.15;;;0.63;;
21663;SDS011;10993;52.510;13.456;2023-03-25T13:47:52;4.43;;;1.50;;
21663;SDS011;10993;52.510;13.456;2023-03-25T13:52:59;2.22;;;0.60;;
21663;SDS011;10993;52.510;13.456;2023-03-25T13:58:20;1.70;;;0.70;;
21663;SDS011;10993;52.510;13.456;2023-03-25T14:03:52;0.60;;;0.40;;
21663;SDS011;10993;52.510;13.456;2023-03-25T14:09:19;5.35;;;1.17;;
21663;SDS011;10993;52.510;13.456;2023-03-25T14:14:34;2.95;;;1.00;;
21663;SDS011;10993;52.510;13.456;2023-03-25T14:19:38;4.80;;;1.42;;
21663;SDS011;10993;52.510;13.456;2023-03-25T14:24:44;3.80;;;1.52;;
21663;SDS011;10993;52.510;13.456;2023-03-25T14:29:46;4.43;;;1.70;;
21663;SDS011;10993;52.510;13.456;2023-03-25T14:34:54;2.85;;;0.50;;
21663;SDS011;10993;52.510;13.456;2023-03-25T14:45:52;2.35;;;0.80;;
21663;SDS011;10993;52.510;13.456;2023-03-25T14:51:09;1.15;;;0.57;;
21663;SDS011;10993;52.510;13.456;2023-03-25T14:56:20;1.90;;;0.90;;
21663;SDS011;10993;52.510;13.456;2023-03-25T15:01:25;3.85;;;1.20;;
21663;SDS011;10993;52.510;13.456;2023-03-25T15:06:31;3.17;;;1.20;;
21663;SDS011;10993;52.510;13.456;2023-03-25T15:11:35;3.85;;;0.85;;
21663;SDS011;10993;52.510;13.456;2023-03-25T15:16:37;2.83;;;0.77;;
21663;SDS011;10993;52.510;13.456;2023-03-25T15:22:17;2.67;;;0.85;;
21663;SDS011;10993;52.510;13.456;2023-03-25T15:27:26;2.10;;;0.80;;
21663;SDS011;10993;52.510;13.456;2023-03-25T15:32:45;1.15;;;0.40;;
21663;SDS011;10993;52.510;13.456;2023-03-25T15:37:54;1.67;;;0.63;;
21663;SDS011;10993;52.510;13.456;2023-03-25T15:43:08;1.05;;;0.40;;
21663;SDS011;10993;52.510;13.456;2023-03-25T15:48:32;3.35;;;0.82;;
21663;SDS011;10993;52.510;13.456;2023-03-25T15:53:49;3.47;;;0.95;;
21663;SDS011;10993;52.510;13.456;2023-03-25T15:59:02;2.30;;;0.82;;
21663;SDS011;10993;52.510;13.456;2023-03-25T16:04:09;4.03;;;1.00;;
21663;SDS011;10993;52.510;13.456;2023-03-25T16:09:15;4.97;;;1.50;;
21663;SDS011;10993;52.510;13.456;2023-03-25T16:14:21;3.05;;;1.40;;
21663;SDS011;10993;52.510;13.456;2023-03-25T16:19:22;4.00;;;1.73;;
21663;SDS011;10993;52.510;13.456;2023-03-25T16:24:25;4.13;;;1.15;;
21663;SDS011;10993;52.510;13.456;2023-03-25T16:29:34;3.28;;;1.02;;
21663;SDS011;10993;52.510;13.456;2023-03-25T16:34:38;4.25;;;1.13;;
21663;SDS011;10993;52.510;13.456;2023-03-25T16:39:39;2.30;;;1.10;;
21663;SDS011;10993;52.510;13.456;2023-03-25T16:44:42;3.08;;;1.10;;
21663;SDS011;10993;52.510;13.456;2023-03-25T16:49:46;2.00;;;0.82;;
21663;SDS011;10993;52.510;13.456;2023-03-25T17:00:14;2.30;;;0.90;;
21663;SDS011;10993;52.510;13.456;2023-03-25T17:05:19;5.13;;;1.98;;
21663;SDS011;10993;52.510;13.456;2023-03-25T17:10:21;3.53;;;1.50;;
21663;SDS011;10993;52.510;13.456;2023-03-25T17:15:25;3.55;;;1.52;;
21663;SDS011;10993;52.510;13.456;2023-03-25T17:20:26;5.60;;;1.92;;
21663;SDS011;10993;52.510;13.456;2023-03-25T17:25:30;6.00;;;2.08;;
21663;SDS011;10993;52.510;13.456;2023-03-25T17:30:40;11.57;;;4.75;;
21663;SDS011;10993;52.510;13.456;2023-03-25T17:35:43;7.30;;;2.90;;
21663;SDS011;10993;52.510;13.456;2023-03-25T17:40:58;7.20;;;2.63;;
21663;SDS011;10993;52.510;13.456;2023-03-25T17:46:01;5.35;;;2.40;;
21663;SDS011;10993;52.510;13.456;2023-03-25T17:51:03;7.40;;;2.65;;
21663;SDS011;10993;52.510;13.456;2023-03-25T17:56:04;7.07;;;2.72;;
21663;SDS011;10993;52.510;13.456;2023-03-25T18:01:08;3.92;;;1.77;;
21663;SDS011;10993;52.510;13.456;2023-03-25T18:06:10;5.07;;;2.05;;
21663;SDS011;10993;52.510;13.456;2023-03-25T18:11:11;5.78;;;2.17;;
21663;SDS011;10993;52.510;13.456;2023-03-25T18:16:13;15.43;;;5.35;;
21663;SDS011;10993;52.510;13.456;2023-03-25T18:21:15;6.75;;;3.15;;
21663;SDS011;10993;52.510;13.456;2023-03-25T18:26:17;5.60;;;2.78;;
21663;SDS011;10993;52.510;13.456;2023-03-25T18:31:19;7.85;;;3.30;;
21663;SDS011;10993;52.510;13.456;2023-03-25T18:36:22;3.90;;;1.98;;
21663;SDS011;10993;52.510;13.456;2023-03-25T18:41:22;7.28;;;3.63;;
21663;SDS011;10993;52.510;13.456;2023-03-25T18:46:24;4.65;;;2.20;;
21663;SDS011;10993;52.510;13.456;2023-03-25T18:51:25;5.50;;;2.17;;
21663;SDS011;10993;52.510;13.456;2023-03-25T18:56:25;5.53;;;1.73;;
21663;SDS011;10993;52.510;13.456;2023-03-25T19:01:27;5.13;;;2.17;;
21663;SDS011;10993;52.510;13.456;2023-03-25T19:06:28;6.22;;;2.00;;
21663;SDS011;10993;52.510;13.456;2023-03-25T19:11:29;5.85;;;2.75;;
21663;SDS011;10993;52.510;13.456;2023-03-25T19:16:33;6.32;;;1.90;;
21663;SDS011;10993;52.510;13.456;2023-03-25T19:21:34;6.97;;;2.50;;
21663;SDS011;10993;52.510;13.456;2023-03-25T19:26:35;6.53;;;2.20;;
21663;SDS011;10993;52.510;13.456;2023-03-25T19:31:39;3.50;;;1.50;;
21663;SDS011;10993;52.510;13.456;2023-03-25T19:36:41;2.00;;;0.90;;
21663;SDS011;10993;52.510;13.456;2023-03-25T19:41:45;1.75;;;1.00;;
21663;SDS011;10993;52.510;13.456;2023-03-25T19:46:49;3.08;;;0.90;;
21663;SDS011;10993;52.510;13.456;2023-03-25T19:51:50;2.10;;;0.88;;
21663;SDS011;10993;52.510;13.456;2023-03-25T19:56:50;9.38;;;3.65;;
21663;SDS011;10993;52.510;13.456;2023-03-25T20:01:52;6.88;;;2.08;;
21663;SDS011;10993;52.510;13.456;2023-03-25T20:06:52;3.90;;;1.70;;
21663;SDS011;10993;52.510;13.456;2023-03-25T20:11:53;4.68;;;2.30;;
21663;SDS011;10993;52.510;13.456;2023-03-25T20:16:54;1.88;;;1.00;;
21663;SDS011;10993;52.510;13.456;2023-03-25T20:21:55;4.50;;;1.90;;
21663;SDS011;10993;52.510;13.456;2023-03-25T20:26:55;11.10;;;3.85;;
21663;SDS011;10993;52.510;13.456;2023-03-25T20:31:57;7.72;;;2.58;;
21663;SDS011;10993;52.510;13.456;2023-03-25T20:36:57;7.22;;;2.33;;
21663;SDS011;10993;52.510;13.456;2023-03-25T20:41:58;4.53;;;1.70;;
21663;SDS011;10993;52.510;13.456;2023-03-25T20:47:00;3.40;;;1.40;;
21663;SDS011;10993;52.510;13.456;2023-03-25T20:52:02;4.32;;;1.70;;
21663;SDS011;10993;52.510;13.456;2023-03-25T20:57:02;7.60;;;1.48;;
21663;SDS011;10993;52.510;13.456;2023-03-25T21:02:05;4.55;;;2.08;;
21663;SDS011;10993;52.510;13.456;2023-03-25T21:07:05;6.28;;;2.25;;
21663;SDS011;10993;52.510;13.456;2023-03-25T21:12:05;5.78;;;2.92;;
21663;SDS011;10993;52.510;13.456;2023-03-25T21:17:07;4.80;;;2.22;;
21663;SDS011;10993;52.510;13.456;2023-03-25T21:22:08;3.78;;;1.80;;
21663;SDS011;10993;52.510;13.456;2023-03-25T21:27:09;3.88;;;2.03;;
21663;SDS011;10993;52.510;13.456;2023-03-25T21:32:14;3.47;;;1.63;;
21663;SDS011;10993;52.510;13.456;2023-03-25T21:37:14;3.63;;;1.42;;
21663;SDS011;10993;52.510;13.456;2023-03-25T21:42:15;5.15;;;2.20;;
21663;SDS011;10993;52.510;13.456;2023-03-25T21:47:16;7.15;;;1.67;;
21663;SDS011;10993;52.510;13.456;2023-03-25T21:52:17;4.32;;;1.73;;
21663;SDS011;10993;52.510;13.456;2023-03-25T21:57:17;3.20;;;1.17;;
21663;SDS011;10993;52.510;13.456;2023-03-25T22:02:19;4.40;;;1.73;;
21663;SDS011;10993;52.510;13.456;2023-03-25T22:07:20;6.78;;;2.25;;
21663;SDS011;10993;52.510;13.456;2023-03-25T22:12:20;7.75;;;2.25;;
21663;SDS011;10993;52.510;13.456;2023-03-25T22:17:22;6.05;;;2.22;;
21663;SDS011;10993;52.510;13.456;2023-03-25T22:22:22;4.35;;;1.55;;
21663;SDS011;10993;52.510;13.456;2023-03-25T22:27:23;6.55;;;2.05;;
21663;SDS011;10993;52.510;13.456;2023-03-25T22:32:24;5.97;;;2.30;;
21663;SDS011;10993;52.510;13.456;2023-03-25T22:37:26;6.57;;;2.40;;
21663;SDS011;10993;52.510;13.456;2023-03-25T22:42:26;5.88;;;2.40;;
21663;SDS011;10993;52.510;13.456;2023-03-25T22:47:29;4.32;;;1.92;;
21663;SDS011;10993;52.510;13.456;2023-03-25T22:52:30;5.88;;;2.45;;
21663;SDS011;10993;52.510;13.456;2023-03-25T22:57:30;10.55;;;3.97;;
21663;SDS011;10993;52.510;13.456;2023-03-25T23:02:32;7.65;;;2.60;;
21663;SDS011;10993;52.510;13.456;2023-03-25T23:07:32;5.78;;;2.33;;
21663;SDS011;10993;52.510;13.456;2023-03-25T23:12:33;5.97;;;2.50;;
21663;SDS011;10993;52.510;13.456;2023-03-25T23:17:35;10.75;;;1.80;;
21663;SDS011;10993;52.510;13.456;2023-03-25T23:22:35;3.58;;;1.70;;
21663;SDS011;10993;52.510;13.456;2023-03-25T23:27:36;5.30;;;1.92;;
21663;SDS011;10993;52.510;13.456;2023-03-25T23:32:39;3.30;;;1.35;;
21663;SDS011;10993;52.510;13.456;2023-03-25T23:37:40;9.50;;;2.40;;
21663;SDS011;10993;52.510;13.456;2023-03-25T23:42:40;5.60;;;2.65;;
21663;SDS011;10993;52.510;13.456;2023-03-25T23:47:42;7.65;;;2.63;;
21663;SDS011;10993;52.510;13.456;2023-03-25T23:52:42;5.38;;;2.08;;
21663;SDS011;10993;52.510;13.456;2023-03-25T23:57:43;5.63;;;2.00;;
